sensor_id;sensor_type;location;lat;lon;timestamp;P1;durP1;ratioP1;P2;durP2;ratioP2
46288;SDS011;63105;46.158;14.604;2024-02-28T00:00:55;18.50;;;13.93;;
46288;SDS011;63105;46.158;14.604;2024-02-28T00:03:20;20.27;;;16.00;;
46288;SDS011;63105;46.158;14.604;2024-02-28T00:05:47;18.38;;;13.73;;
46288;SDS011;63105;46.158;14.604;2024-02-28T00:08:13;18.40;;;13.90;;
46288;SDS011;63105;46.158;14.604;2024-02-28T00:10:38;19.45;;;14.15;;
46288;SDS011;63105;46.158;14.604;2024-02-28T00:13:03;18.00;;;13.50;;
46288;SDS011;63105;46.158;14.604;2024-02-28T00:15:29;17.23;;;12.93;;
46288;SDS011;63105;46.158;14.604;2024-02-28T00:17:54;15.68;;;11.60;;
46288;SDS011;63105;46.158;14.604;2024-02-28T00:20:19;14.00;;;10.35;;
46288;SDS011;63105;46.158;14.604;2024-02-28T00:22:44;17.35;;;13.18;;
46288;SDS011;63105;46.158;14.604;2024-02-28T00:25:10;19.30;;;13.32;;
46288;SDS011;63105;46.158;14.604;2024-02-28T00:27:36;17.38;;;12.95;;
46288;SDS011;63105;46.158;14.604;2024-02-28T00:30:02;17.33;;;13.02;;
46288;SDS011;63105;46.158;14.604;2024-02-28T00:32:27;14.20;;;10.93;;
46288;SDS011;63105;46.158;14.604;2024-02-28T00:34:52;18.08;;;12.57;;
46288;SDS011;63105;46.158;14.604;2024-02-28T00:37:17;17.90;;;13.00;;
46288;SDS011;63105;46.158;14.604;2024-02-28T00:39:44;15.70;;;12.20;;
46288;SDS011;63105;46.158;14.604;2024-02-28T00:42:09;16.33;;;11.68;;
46288;SDS011;63105;46.158;14.604;2024-02-28T00:44:35;21.83;;;13.73;;
46288;SDS011;63105;46.158;14.604;2024-02-28T00:47:00;21.50;;;14.27;;
46288;SDS011;63105;46.158;14.604;2024-02-28T00:49:25;16.75;;;12.35;;
46288;SDS011;63105;46.158;14.604;2024-02-28T00:51:50;16.13;;;11.90;;
46288;SDS011;63105;46.158;14.604;2024-02-28T00:54:16;16.23;;;12.50;;
46288;SDS011;63105;46.158;14.604;2024-02-28T00:56:41;15.50;;;11.55;;
46288;SDS011;63105;46.158;14.604;2024-02-28T00:59:07;16.92;;;12.45;;
46288;SDS011;63105;46.158;14.604;2024-02-28T01:01:35;16.27;;;12.18;;
46288;SDS011;63105;46.158;14.604;2024-02-28T01:04:00;14.43;;;10.68;;
46288;SDS011;63105;46.158;14.604;2024-02-28T01:06:25;14.57;;;9.93;;
46288;SDS011;63105;46.158;14.604;2024-02-28T01:08:50;12.57;;;9.13;;
46288;SDS011;63105;46.158;14.604;2024-02-28T01:11:16;15.48;;;11.30;;
46288;SDS011;63105;46.158;14.604;2024-02-28T01:13:41;14.60;;;10.13;;
46288;SDS011;63105;46.158;14.604;2024-02-28T01:16:06;14.85;;;10.52;;
46288;SDS011;63105;46.158;14.604;2024-02-28T01:18:31;13.07;;;9.35;;
46288;SDS011;63105;46.158;14.604;2024-02-28T01:20:57;14.75;;;10.27;;
46288;SDS011;63105;46.158;14.604;2024-02-28T01:23:22;18.45;;;11.95;;
46288;SDS011;63105;46.158;14.604;2024-02-28T01:25:48;24.02;;;16.23;;
46288;SDS011;63105;46.158;14.604;2024-02-28T01:28:13;19.83;;;13.27;;
46288;SDS011;63105;46.158;14.604;2024-02-28T01:30:38;17.13;;;11.32;;
46288;SDS011;63105;46.158;14.604;2024-02-28T01:33:03;16.45;;;11.20;;
46288;SDS011;63105;46.158;14.604;2024-02-28T01:35:29;13.82;;;9.70;;
46288;SDS011;63105;46.158;14.604;2024-02-28T01:37:54;14.68;;;9.73;;
46288;SDS011;63105;46.158;14.604;2024-02-28T01:40:19;13.13;;;9.40;;
46288;SDS011;63105;46.158;14.604;2024-02-28T01:42:44;13.30;;;9.07;;
46288;SDS011;63105;46.158;14.604;2024-02-28T01:45:10;16.67;;;11.27;;
46288;SDS011;63105;46.158;14.604;2024-02-28T01:47:37;14.70;;;10.13;;
46288;SDS011;63105;46.158;14.604;2024-02-28T01:50:03;16.65;;;11.52;;
46288;SDS011;63105;46.158;14.604;2024-02-28T01:52:28;19.65;;;12.05;;
46288;SDS011;63105;46.158;14.604;2024-02-28T01:54:54;19.17;;;12.73;;
46288;SDS011;63105;46.158;14.604;2024-02-28T01:57:19;21.33;;;14.88;;
46288;SDS011;63105;46.158;14.604;2024-02-28T01:59:44;28.85;;;18.45;;
46288;SDS011;63105;46.158;14.604;2024-02-28T02:02:10;33.30;;;18.15;;
46288;SDS011;63105;46.158;14.604;2024-02-28T02:04:35;35.67;;;19.15;;
46288;SDS011;63105;46.158;14.604;2024-02-28T02:07:01;32.97;;;19.35;;
46288;SDS011;63105;46.158;14.604;2024-02-28T02:09:26;41.10;;;19.30;;
46288;SDS011;63105;46.158;14.604;2024-02-28T02:11:51;20.73;;;13.57;;
46288;SDS011;63105;46.158;14.604;2024-02-28T02:14:17;18.80;;;12.82;;
46288;SDS011;63105;46.158;14.604;2024-02-28T02:16:42;16.73;;;11.95;;
46288;SDS011;63105;46.158;14.604;2024-02-28T02:19:08;17.20;;;11.38;;
46288;SDS011;63105;46.158;14.604;2024-02-28T02:21:37;17.27;;;10.60;;
46288;SDS011;63105;46.158;14.604;2024-02-28T02:24:06;16.92;;;12.05;;
46288;SDS011;63105;46.158;14.604;2024-02-28T02:26:31;18.15;;;11.90;;
46288;SDS011;63105;46.158;14.604;2024-02-28T02:28:56;16.67;;;12.32;;
46288;SDS011;63105;46.158;14.604;2024-02-28T02:31:22;17.50;;;12.25;;
46288;SDS011;63105;46.158;14.604;2024-02-28T02:33:47;16.90;;;11.90;;
46288;SDS011;63105;46.158;14.604;2024-02-28T02:36:13;17.23;;;11.93;;
46288;SDS011;63105;46.158;14.604;2024-02-28T02:38:38;18.08;;;12.13;;
46288;SDS011;63105;46.158;14.604;2024-02-28T02:41:03;16.80;;;11.40;;
46288;SDS011;63105;46.158;14.604;2024-02-28T02:43:28;16.45;;;11.85;;
46288;SDS011;63105;46.158;14.604;2024-02-28T02:45:54;18.38;;;12.68;;
46288;SDS011;63105;46.158;14.604;2024-02-28T02:48:19;19.35;;;12.50;;
46288;SDS011;63105;46.158;14.604;2024-02-28T02:50:44;18.35;;;12.90;;
46288;SDS011;63105;46.158;14.604;2024-02-28T02:53:10;16.98;;;11.50;;
46288;SDS011;63105;46.158;14.604;2024-02-28T02:55:35;17.45;;;11.20;;
46288;SDS011;63105;46.158;14.604;2024-02-28T02:58:01;17.30;;;11.82;;
46288;SDS011;63105;46.158;14.604;2024-02-28T03:00:27;18.63;;;12.02;;
46288;SDS011;63105;46.158;14.604;2024-02-28T03:02:52;19.02;;;12.00;;
46288;SDS011;63105;46.158;14.604;2024-02-28T03:05:18;25.98;;;15.63;;
46288;SDS011;63105;46.158;14.604;2024-02-28T03:07:43;33.38;;;17.77;;
46288;SDS011;63105;46.158;14.604;2024-02-28T03:10:08;29.77;;;16.48;;
46288;SDS011;63105;46.158;14.604;2024-02-28T03:12:35;28.42;;;17.25;;
46288;SDS011;63105;46.158;14.604;2024-02-28T03:15:00;28.02;;;17.52;;
46288;SDS011;63105;46.158;14.604;2024-02-28T03:17:25;28.08;;;18.40;;
46288;SDS011;63105;46.158;14.604;2024-02-28T03:19:51;36.35;;;17.80;;
46288;SDS011;63105;46.158;14.604;2024-02-28T03:22:16;33.90;;;17.42;;
46288;SDS011;63105;46.158;14.604;2024-02-28T03:24:41;63.10;;;19.30;;
46288;SDS011;63105;46.158;14.604;2024-02-28T03:27:06;59.42;;;20.95;;
46288;SDS011;63105;46.158;14.604;2024-02-28T03:29:32;45.72;;;19.83;;
46288;SDS011;63105;46.158;14.604;2024-02-28T03:31:57;53.78;;;19.67;;
46288;SDS011;63105;46.158;14.604;2024-02-28T03:34:23;45.50;;;20.58;;
46288;SDS011;63105;46.158;14.604;2024-02-28T03:36:48;32.17;;;17.48;;
46288;SDS011;63105;46.158;14.604;2024-02-28T03:39:13;23.25;;;14.73;;
46288;SDS011;63105;46.158;14.604;2024-02-28T03:41:38;23.60;;;15.27;;
46288;SDS011;63105;46.158;14.604;2024-02-28T03:44:04;23.25;;;15.25;;
46288;SDS011;63105;46.158;14.604;2024-02-28T03:46:29;22.48;;;14.70;;
46288;SDS011;63105;46.158;14.604;2024-02-28T03:48:55;22.77;;;14.88;;
46288;SDS011;63105;46.158;14.604;2024-02-28T03:51:20;22.67;;;14.98;;
46288;SDS011;63105;46.158;14.604;2024-02-28T03:53:45;22.67;;;14.80;;
46288;SDS011;63105;46.158;14.604;2024-02-28T03:56:10;20.02;;;13.90;;
46288;SDS011;63105;46.158;14.604;2024-02-28T03:58:36;22.00;;;14.27;;
46288;SDS011;63105;46.158;14.604;2024-02-28T04:01:02;19.83;;;12.60;;
46288;SDS011;63105;46.158;14.604;2024-02-28T04:03:27;18.45;;;12.40;;
46288;SDS011;63105;46.158;14.604;2024-02-28T04:05:52;21.90;;;13.90;;
46288;SDS011;63105;46.158;14.604;2024-02-28T04:08:17;20.08;;;12.82;;
46288;SDS011;63105;46.158;14.604;2024-02-28T04:10:43;21.95;;;13.93;;
46288;SDS011;63105;46.158;14.604;2024-02-28T04:13:08;19.88;;;13.07;;
46288;SDS011;63105;46.158;14.604;2024-02-28T04:15:34;29.10;;;16.25;;
46288;SDS011;63105;46.158;14.604;2024-02-28T04:17:59;24.80;;;15.32;;
46288;SDS011;63105;46.158;14.604;2024-02-28T04:20:24;25.63;;;15.95;;
46288;SDS011;63105;46.158;14.604;2024-02-28T04:22:50;31.08;;;16.55;;
46288;SDS011;63105;46.158;14.604;2024-02-28T04:25:15;49.42;;;19.35;;
46288;SDS011;63105;46.158;14.604;2024-02-28T04:27:41;25.40;;;16.15;;
46288;SDS011;63105;46.158;14.604;2024-02-28T04:30:06;24.27;;;15.80;;
46288;SDS011;63105;46.158;14.604;2024-02-28T04:32:31;32.42;;;17.13;;
46288;SDS011;63105;46.158;14.604;2024-02-28T04:34:57;32.13;;;17.65;;
46288;SDS011;63105;46.158;14.604;2024-02-28T04:37:22;29.17;;;16.92;;
46288;SDS011;63105;46.158;14.604;2024-02-28T04:39:48;24.13;;;14.25;;
46288;SDS011;63105;46.158;14.604;2024-02-28T04:42:13;23.73;;;14.40;;
46288;SDS011;63105;46.158;14.604;2024-02-28T04:44:39;18.23;;;12.23;;
46288;SDS011;63105;46.158;14.604;2024-02-28T04:47:04;22.05;;;14.55;;
46288;SDS011;63105;46.158;14.604;2024-02-28T04:49:30;23.67;;;14.05;;
46288;SDS011;63105;46.158;14.604;2024-02-28T04:51:55;28.20;;;17.08;;
46288;SDS011;63105;46.158;14.604;2024-02-28T04:54:20;30.02;;;16.80;;
46288;SDS011;63105;46.158;14.604;2024-02-28T04:56:45;25.25;;;15.50;;
46288;SDS011;63105;46.158;14.604;2024-02-28T04:59:11;23.27;;;15.02;;
46288;SDS011;63105;46.158;14.604;2024-02-28T05:01:37;23.52;;;14.60;;
46288;SDS011;63105;46.158;14.604;2024-02-28T05:04:04;23.00;;;14.05;;
46288;SDS011;63105;46.158;14.604;2024-02-28T05:06:30;22.48;;;14.45;;
46288;SDS011;63105;46.158;14.604;2024-02-28T05:08:55;22.98;;;14.50;;
46288;SDS011;63105;46.158;14.604;2024-02-28T05:11:20;21.90;;;14.45;;
46288;SDS011;63105;46.158;14.604;2024-02-28T05:13:45;24.38;;;14.93;;
46288;SDS011;63105;46.158;14.604;2024-02-28T05:16:14;23.55;;;14.63;;
46288;SDS011;63105;46.158;14.604;2024-02-28T05:18:39;23.45;;;14.43;;
46288;SDS011;63105;46.158;14.604;2024-02-28T05:21:04;29.73;;;16.33;;
46288;SDS011;63105;46.158;14.604;2024-02-28T05:23:29;24.75;;;14.98;;
46288;SDS011;63105;46.158;14.604;2024-02-28T05:25:55;25.45;;;15.15;;
46288;SDS011;63105;46.158;14.604;2024-02-28T05:28:21;25.88;;;15.55;;
46288;SDS011;63105;46.158;14.604;2024-02-28T05:30:46;26.08;;;16.13;;
46288;SDS011;63105;46.158;14.604;2024-02-28T05:33:11;27.52;;;16.02;;
46288;SDS011;63105;46.158;14.604;2024-02-28T05:35:37;26.40;;;15.75;;
46288;SDS011;63105;46.158;14.604;2024-02-28T05:38:02;28.30;;;16.73;;
46288;SDS011;63105;46.158;14.604;2024-02-28T05:40:27;22.70;;;13.25;;
46288;SDS011;63105;46.158;14.604;2024-02-28T05:42:53;23.30;;;14.57;;
46288;SDS011;63105;46.158;14.604;2024-02-28T05:45:18;26.35;;;15.27;;
46288;SDS011;63105;46.158;14.604;2024-02-28T05:47:43;29.33;;;17.48;;
46288;SDS011;63105;46.158;14.604;2024-02-28T05:50:09;24.70;;;15.18;;
46288;SDS011;63105;46.158;14.604;2024-02-28T05:52:35;27.60;;;16.60;;
46288;SDS011;63105;46.158;14.604;2024-02-28T05:55:00;27.05;;;16.48;;
46288;SDS011;63105;46.158;14.604;2024-02-28T05:57:25;26.60;;;16.73;;
46288;SDS011;63105;46.158;14.604;2024-02-28T05:59:51;25.38;;;15.18;;
46288;SDS011;63105;46.158;14.604;2024-02-28T06:02:16;24.63;;;14.60;;
46288;SDS011;63105;46.158;14.604;2024-02-28T06:04:41;21.40;;;14.32;;
46288;SDS011;63105;46.158;14.604;2024-02-28T06:07:06;27.05;;;15.82;;
46288;SDS011;63105;46.158;14.604;2024-02-28T06:09:31;24.38;;;14.43;;
46288;SDS011;63105;46.158;14.604;2024-02-28T06:11:57;24.75;;;15.80;;
46288;SDS011;63105;46.158;14.604;2024-02-28T06:14:22;23.85;;;14.73;;
46288;SDS011;63105;46.158;14.604;2024-02-28T06:16:47;24.20;;;15.05;;
46288;SDS011;63105;46.158;14.604;2024-02-28T06:19:12;22.13;;;14.15;;
46288;SDS011;63105;46.158;14.604;2024-02-28T06:21:38;22.55;;;14.85;;
46288;SDS011;63105;46.158;14.604;2024-02-28T06:24:03;47.10;;;22.55;;
46288;SDS011;63105;46.158;14.604;2024-02-28T06:26:29;29.77;;;18.17;;
46288;SDS011;63105;46.158;14.604;2024-02-28T06:28:56;42.10;;;22.55;;
46288;SDS011;63105;46.158;14.604;2024-02-28T06:31:26;37.95;;;22.30;;
46288;SDS011;63105;46.158;14.604;2024-02-28T06:33:51;45.80;;;22.90;;
46288;SDS011;63105;46.158;14.604;2024-02-28T06:36:16;28.98;;;17.80;;
46288;SDS011;63105;46.158;14.604;2024-02-28T06:38:41;31.77;;;17.75;;
46288;SDS011;63105;46.158;14.604;2024-02-28T06:41:07;27.00;;;17.42;;
46288;SDS011;63105;46.158;14.604;2024-02-28T06:43:35;57.53;;;23.17;;
46288;SDS011;63105;46.158;14.604;2024-02-28T06:46:00;50.72;;;22.48;;
46288;SDS011;63105;46.158;14.604;2024-02-28T06:48:26;47.78;;;22.17;;
46288;SDS011;63105;46.158;14.604;2024-02-28T06:50:52;36.63;;;20.35;;
46288;SDS011;63105;46.158;14.604;2024-02-28T06:53:17;30.73;;;18.42;;
46288;SDS011;63105;46.158;14.604;2024-02-28T06:55:42;26.05;;;15.80;;
46288;SDS011;63105;46.158;14.604;2024-02-28T06:58:07;22.70;;;15.15;;
46288;SDS011;63105;46.158;14.604;2024-02-28T07:00:32;26.65;;;16.83;;
46288;SDS011;63105;46.158;14.604;2024-02-28T07:02:58;25.98;;;16.73;;
46288;SDS011;63105;46.158;14.604;2024-02-28T07:05:23;25.67;;;16.27;;
46288;SDS011;63105;46.158;14.604;2024-02-28T07:07:49;25.48;;;16.15;;
46288;SDS011;63105;46.158;14.604;2024-02-28T07:10:14;27.30;;;16.35;;
46288;SDS011;63105;46.158;14.604;2024-02-28T07:12:39;34.08;;;17.58;;
46288;SDS011;63105;46.158;14.604;2024-02-28T07:15:05;28.10;;;16.75;;
46288;SDS011;63105;46.158;14.604;2024-02-28T07:17:31;27.02;;;17.15;;
46288;SDS011;63105;46.158;14.604;2024-02-28T07:19:56;28.70;;;17.90;;
46288;SDS011;63105;46.158;14.604;2024-02-28T07:22:21;33.47;;;17.88;;
46288;SDS011;63105;46.158;14.604;2024-02-28T07:24:46;44.42;;;22.58;;
46288;SDS011;63105;46.158;14.604;2024-02-28T07:27:11;31.13;;;19.45;;
46288;SDS011;63105;46.158;14.604;2024-02-28T07:29:37;27.38;;;16.92;;
46288;SDS011;63105;46.158;14.604;2024-02-28T07:32:02;40.35;;;19.65;;
46288;SDS011;63105;46.158;14.604;2024-02-28T07:34:28;26.50;;;15.48;;
46288;SDS011;63105;46.158;14.604;2024-02-28T07:36:53;31.17;;;18.38;;
46288;SDS011;63105;46.158;14.604;2024-02-28T07:39:18;28.30;;;17.15;;
46288;SDS011;63105;46.158;14.604;2024-02-28T07:41:45;46.45;;;23.42;;
46288;SDS011;63105;46.158;14.604;2024-02-28T07:44:11;54.25;;;24.33;;
46288;SDS011;63105;46.158;14.604;2024-02-28T07:46:36;41.15;;;21.48;;
46288;SDS011;63105;46.158;14.604;2024-02-28T07:49:01;32.90;;;18.42;;
46288;SDS011;63105;46.158;14.604;2024-02-28T07:51:27;29.33;;;17.00;;
46288;SDS011;63105;46.158;14.604;2024-02-28T07:53:52;32.10;;;18.23;;
46288;SDS011;63105;46.158;14.604;2024-02-28T07:56:18;32.10;;;17.98;;
46288;SDS011;63105;46.158;14.604;2024-02-28T07:58:44;39.30;;;21.40;;
46288;SDS011;63105;46.158;14.604;2024-02-28T08:01:10;37.92;;;20.67;;
46288;SDS011;63105;46.158;14.604;2024-02-28T08:03:35;39.90;;;21.48;;
46288;SDS011;63105;46.158;14.604;2024-02-28T08:06:00;37.63;;;21.20;;
46288;SDS011;63105;46.158;14.604;2024-02-28T08:08:25;34.33;;;19.08;;
46288;SDS011;63105;46.158;14.604;2024-02-28T08:10:51;32.53;;;18.50;;
46288;SDS011;63105;46.158;14.604;2024-02-28T08:13:18;31.92;;;18.38;;
46288;SDS011;63105;46.158;14.604;2024-02-28T08:15:43;31.73;;;18.13;;
46288;SDS011;63105;46.158;14.604;2024-02-28T08:18:08;32.08;;;18.75;;
46288;SDS011;63105;46.158;14.604;2024-02-28T08:20:36;38.25;;;24.30;;
46288;SDS011;63105;46.158;14.604;2024-02-28T08:23:02;34.38;;;21.27;;
46288;SDS011;63105;46.158;14.604;2024-02-28T08:25:28;35.90;;;20.30;;
46288;SDS011;63105;46.158;14.604;2024-02-28T08:27:53;35.42;;;23.40;;
46288;SDS011;63105;46.158;14.604;2024-02-28T08:30:19;45.05;;;31.48;;
46288;SDS011;63105;46.158;14.604;2024-02-28T08:32:44;33.63;;;21.38;;
46288;SDS011;63105;46.158;14.604;2024-02-28T08:35:09;30.63;;;19.17;;
46288;SDS011;63105;46.158;14.604;2024-02-28T08:37:35;29.98;;;19.27;;
46288;SDS011;63105;46.158;14.604;2024-02-28T08:40:03;29.98;;;17.88;;
46288;SDS011;63105;46.158;14.604;2024-02-28T08:42:28;31.58;;;17.35;;
46288;SDS011;63105;46.158;14.604;2024-02-28T08:44:53;29.92;;;18.45;;
46288;SDS011;63105;46.158;14.604;2024-02-28T08:47:23;30.92;;;17.80;;
46288;SDS011;63105;46.158;14.604;2024-02-28T08:49:48;26.80;;;16.17;;
46288;SDS011;63105;46.158;14.604;2024-02-28T08:52:13;28.80;;;17.67;;
46288;SDS011;63105;46.158;14.604;2024-02-28T08:54:39;21.73;;;14.27;;
46288;SDS011;63105;46.158;14.604;2024-02-28T08:57:04;23.35;;;14.57;;
46288;SDS011;63105;46.158;14.604;2024-02-28T08:59:29;21.42;;;14.50;;
46288;SDS011;63105;46.158;14.604;2024-02-28T09:01:55;19.50;;;12.68;;
46288;SDS011;63105;46.158;14.604;2024-02-28T09:04:20;20.75;;;13.68;;
46288;SDS011;63105;46.158;14.604;2024-02-28T09:06:46;21.10;;;14.43;;
46288;SDS011;63105;46.158;14.604;2024-02-28T09:09:11;21.98;;;14.50;;
46288;SDS011;63105;46.158;14.604;2024-02-28T09:11:36;22.00;;;14.35;;
46288;SDS011;63105;46.158;14.604;2024-02-28T09:14:02;22.02;;;12.40;;
46288;SDS011;63105;46.158;14.604;2024-02-28T09:16:28;18.70;;;12.23;;
46288;SDS011;63105;46.158;14.604;2024-02-28T09:18:53;19.02;;;12.30;;
46288;SDS011;63105;46.158;14.604;2024-02-28T09:21:18;18.05;;;12.57;;
46288;SDS011;63105;46.158;14.604;2024-02-28T09:23:44;17.92;;;12.52;;
46288;SDS011;63105;46.158;14.604;2024-02-28T09:26:09;21.63;;;13.57;;
46288;SDS011;63105;46.158;14.604;2024-02-28T09:28:35;18.00;;;12.85;;
46288;SDS011;63105;46.158;14.604;2024-02-28T09:31:00;20.33;;;13.90;;
46288;SDS011;63105;46.158;14.604;2024-02-28T09:33:25;21.20;;;13.38;;
46288;SDS011;63105;46.158;14.604;2024-02-28T09:35:51;19.17;;;12.52;;
46288;SDS011;63105;46.158;14.604;2024-02-28T09:38:16;18.45;;;11.93;;
46288;SDS011;63105;46.158;14.604;2024-02-28T09:40:41;17.77;;;12.73;;
46288;SDS011;63105;46.158;14.604;2024-02-28T09:43:11;19.55;;;11.38;;
46288;SDS011;63105;46.158;14.604;2024-02-28T09:45:39;18.73;;;12.75;;
46288;SDS011;63105;46.158;14.604;2024-02-28T09:48:05;17.95;;;12.10;;
46288;SDS011;63105;46.158;14.604;2024-02-28T09:50:31;18.27;;;12.15;;
46288;SDS011;63105;46.158;14.604;2024-02-28T09:52:56;20.02;;;12.82;;
46288;SDS011;63105;46.158;14.604;2024-02-28T09:55:22;18.20;;;11.30;;
46288;SDS011;63105;46.158;14.604;2024-02-28T09:57:47;19.02;;;12.18;;
46288;SDS011;63105;46.158;14.604;2024-02-28T10:00:13;16.55;;;11.27;;
46288;SDS011;63105;46.158;14.604;2024-02-28T10:02:39;15.27;;;10.40;;
46288;SDS011;63105;46.158;14.604;2024-02-28T10:05:06;14.48;;;10.75;;
46288;SDS011;63105;46.158;14.604;2024-02-28T10:07:31;17.88;;;11.20;;
46288;SDS011;63105;46.158;14.604;2024-02-28T10:09:57;14.45;;;10.13;;
46288;SDS011;63105;46.158;14.604;2024-02-28T10:12:22;16.73;;;11.55;;
46288;SDS011;63105;46.158;14.604;2024-02-28T10:14:50;15.90;;;11.35;;
46288;SDS011;63105;46.158;14.604;2024-02-28T10:17:16;15.48;;;10.80;;
46288;SDS011;63105;46.158;14.604;2024-02-28T10:19:41;14.98;;;10.65;;
46288;SDS011;63105;46.158;14.604;2024-02-28T10:22:06;13.82;;;10.07;;
46288;SDS011;63105;46.158;14.604;2024-02-28T10:24:32;14.27;;;10.20;;
46288;SDS011;63105;46.158;14.604;2024-02-28T10:27:00;17.48;;;11.23;;
46288;SDS011;63105;46.158;14.604;2024-02-28T10:29:25;13.18;;;9.02;;
46288;SDS011;63105;46.158;14.604;2024-02-28T10:31:54;14.15;;;9.93;;
46288;SDS011;63105;46.158;14.604;2024-02-28T10:34:20;14.73;;;9.77;;
46288;SDS011;63105;46.158;14.604;2024-02-28T10:36:45;13.82;;;10.23;;
46288;SDS011;63105;46.158;14.604;2024-02-28T10:39:11;13.05;;;9.27;;
46288;SDS011;63105;46.158;14.604;2024-02-28T10:41:37;14.35;;;9.98;;
46288;SDS011;63105;46.158;14.604;2024-02-28T10:44:03;13.38;;;9.93;;
46288;SDS011;63105;46.158;14.604;2024-02-28T10:46:28;14.63;;;10.48;;
46288;SDS011;63105;46.158;14.604;2024-02-28T10:48:54;15.05;;;9.80;;
46288;SDS011;63105;46.158;14.604;2024-02-28T10:51:28;16.10;;;11.05;;
46288;SDS011;63105;46.158;14.604;2024-02-28T10:54:09;15.35;;;11.15;;
46288;SDS011;63105;46.158;14.604;2024-02-28T10:56:40;16.52;;;11.20;;
46288;SDS011;63105;46.158;14.604;2024-02-28T10:59:06;17.42;;;11.60;;
46288;SDS011;63105;46.158;14.604;2024-02-28T11:01:31;18.65;;;11.50;;
46288;SDS011;63105;46.158;14.604;2024-02-28T11:03:57;15.98;;;11.57;;
46288;SDS011;63105;46.158;14.604;2024-02-28T11:06:22;18.70;;;11.27;;
46288;SDS011;63105;46.158;14.604;2024-02-28T11:08:48;15.05;;;10.63;;
46288;SDS011;63105;46.158;14.604;2024-02-28T11:11:14;18.50;;;12.13;;
46288;SDS011;63105;46.158;14.604;2024-02-28T11:13:50;15.40;;;11.07;;
46288;SDS011;63105;46.158;14.604;2024-02-28T11:16:16;17.60;;;11.75;;
46288;SDS011;63105;46.158;14.604;2024-02-28T11:18:50;14.45;;;10.40;;
46288;SDS011;63105;46.158;14.604;2024-02-28T11:21:16;16.55;;;11.98;;
46288;SDS011;63105;46.158;14.604;2024-02-28T11:23:41;16.20;;;11.68;;
46288;SDS011;63105;46.158;14.604;2024-02-28T11:26:11;16.63;;;12.10;;
46288;SDS011;63105;46.158;14.604;2024-02-28T11:28:38;16.45;;;12.20;;
46288;SDS011;63105;46.158;14.604;2024-02-28T11:31:03;16.35;;;12.15;;
46288;SDS011;63105;46.158;14.604;2024-02-28T11:33:28;16.20;;;12.15;;
46288;SDS011;63105;46.158;14.604;2024-02-28T11:35:57;17.10;;;12.63;;
46288;SDS011;63105;46.158;14.604;2024-02-28T11:38:25;13.90;;;10.65;;
46288;SDS011;63105;46.158;14.604;2024-02-28T11:40:50;16.17;;;11.30;;
46288;SDS011;63105;46.158;14.604;2024-02-28T11:43:16;14.02;;;10.30;;
46288;SDS011;63105;46.158;14.604;2024-02-28T11:45:42;17.50;;;12.35;;
46288;SDS011;63105;46.158;14.604;2024-02-28T11:48:08;15.30;;;11.50;;
46288;SDS011;63105;46.158;14.604;2024-02-28T11:50:33;16.70;;;11.55;;
46288;SDS011;63105;46.158;14.604;2024-02-28T11:52:59;15.25;;;11.45;;
46288;SDS011;63105;46.158;14.604;2024-02-28T11:55:26;15.55;;;10.70;;
46288;SDS011;63105;46.158;14.604;2024-02-28T11:57:52;14.48;;;10.75;;
46288;SDS011;63105;46.158;14.604;2024-02-28T12:00:17;16.30;;;11.40;;
46288;SDS011;63105;46.158;14.604;2024-02-28T12:02:42;13.65;;;10.32;;
46288;SDS011;63105;46.158;14.604;2024-02-28T12:05:08;17.30;;;11.75;;
46288;SDS011;63105;46.158;14.604;2024-02-28T12:07:34;14.48;;;11.30;;
46288;SDS011;63105;46.158;14.604;2024-02-28T12:09:59;19.15;;;12.40;;
46288;SDS011;63105;46.158;14.604;2024-02-28T12:12:25;15.90;;;11.05;;
46288;SDS011;63105;46.158;14.604;2024-02-28T12:14:51;15.07;;;11.73;;
46288;SDS011;63105;46.158;14.604;2024-02-28T12:17:17;17.30;;;12.52;;
46288;SDS011;63105;46.158;14.604;2024-02-28T12:19:42;14.55;;;10.70;;
46288;SDS011;63105;46.158;14.604;2024-02-28T12:22:08;19.05;;;12.35;;
46288;SDS011;63105;46.158;14.604;2024-02-28T12:24:33;16.35;;;11.90;;
46288;SDS011;63105;46.158;14.604;2024-02-28T12:26:58;17.10;;;12.83;;
46288;SDS011;63105;46.158;14.604;2024-02-28T12:29:24;15.75;;;11.48;;
46288;SDS011;63105;46.158;14.604;2024-02-28T12:31:49;14.65;;;10.90;;
46288;SDS011;63105;46.158;14.604;2024-02-28T12:34:14;16.17;;;11.70;;
46288;SDS011;63105;46.158;14.604;2024-02-28T12:36:40;20.13;;;13.27;;
46288;SDS011;63105;46.158;14.604;2024-02-28T12:39:05;18.08;;;11.55;;
46288;SDS011;63105;46.158;14.604;2024-02-28T12:41:31;16.48;;;12.18;;
46288;SDS011;63105;46.158;14.604;2024-02-28T12:43:56;17.10;;;11.77;;
46288;SDS011;63105;46.158;14.604;2024-02-28T12:46:21;16.48;;;12.40;;
46288;SDS011;63105;46.158;14.604;2024-02-28T12:48:47;16.75;;;12.27;;
46288;SDS011;63105;46.158;14.604;2024-02-28T12:53:57;17.73;;;12.18;;
46288;SDS011;63105;46.158;14.604;2024-02-28T12:56:22;14.52;;;10.90;;
46288;SDS011;63105;46.158;14.604;2024-02-28T12:58:47;16.53;;;11.53;;
46288;SDS011;63105;46.158;14.604;2024-02-28T13:01:13;15.32;;;11.30;;
46288;SDS011;63105;46.158;14.604;2024-02-28T13:03:38;16.20;;;12.20;;
46288;SDS011;63105;46.158;14.604;2024-02-28T13:06:03;16.47;;;11.33;;
46288;SDS011;63105;46.158;14.604;2024-02-28T13:08:28;13.48;;;10.18;;
46288;SDS011;63105;46.158;14.604;2024-02-28T13:10:54;13.27;;;10.03;;
46288;SDS011;63105;46.158;14.604;2024-02-28T13:13:19;14.40;;;10.75;;
46288;SDS011;63105;46.158;14.604;2024-02-28T13:15:44;16.65;;;11.55;;
46288;SDS011;63105;46.158;14.604;2024-02-28T13:18:10;14.10;;;10.48;;
46288;SDS011;63105;46.158;14.604;2024-02-28T13:20:36;12.73;;;9.35;;
46288;SDS011;63105;46.158;14.604;2024-02-28T13:23:03;13.50;;;10.15;;
46288;SDS011;63105;46.158;14.604;2024-02-28T13:25:28;16.35;;;10.63;;
46288;SDS011;63105;46.158;14.604;2024-02-28T13:27:53;15.40;;;10.65;;
46288;SDS011;63105;46.158;14.604;2024-02-28T13:30:18;14.47;;;10.27;;
46288;SDS011;63105;46.158;14.604;2024-02-28T13:32:44;14.35;;;9.48;;
46288;SDS011;63105;46.158;14.604;2024-02-28T13:35:09;16.27;;;10.52;;
46288;SDS011;63105;46.158;14.604;2024-02-28T13:37:35;12.60;;;9.73;;
46288;SDS011;63105;46.158;14.604;2024-02-28T13:40:01;20.05;;;12.95;;
46288;SDS011;63105;46.158;14.604;2024-02-28T13:42:29;13.90;;;10.52;;
46288;SDS011;63105;46.158;14.604;2024-02-28T13:44:54;14.45;;;10.15;;
46288;SDS011;63105;46.158;14.604;2024-02-28T13:47:20;11.93;;;8.63;;
46288;SDS011;63105;46.158;14.604;2024-02-28T13:49:45;13.77;;;9.52;;
46288;SDS011;63105;46.158;14.604;2024-02-28T13:52:12;14.98;;;10.35;;
46288;SDS011;63105;46.158;14.604;2024-02-28T13:54:37;14.10;;;10.40;;
46288;SDS011;63105;46.158;14.604;2024-02-28T13:57:02;14.45;;;9.10;;
46288;SDS011;63105;46.158;14.604;2024-02-28T13:59:29;11.57;;;8.93;;
46288;SDS011;63105;46.158;14.604;2024-02-28T14:01:55;13.88;;;9.90;;